sensor_id;sensor_type;location;lat;lon;timestamp;temperature;humidity
27747;DHT22;15138;51.012;4.692;2024-03-25T00:02:00;4.60;99.90
27747;DHT22;15138;51.012;4.692;2024-03-25T00:04:26;4.60;99.90
27747;DHT22;15138;51.012;4.692;2024-03-25T00:06:53;4.60;99.90
27747;DHT22;15138;51.012;4.692;2024-03-25T00:09:21;4.50;99.90
27747;DHT22;15138;51.012;4.692;2024-03-25T00:11:48;4.50;99.90
27747;DHT22;15138;51.012;4.692;2024-03-25T00:14:14;4.60;99.90
27747;DHT22;15138;51.012;4.692;2024-03-25T00:16:41;4.60;99.90
27747;DHT22;15138;51.012;4.692;2024-03-25T00:19:07;4.50;99.90
27747;DHT22;15138;51.012;4.692;2024-03-25T00:21:35;4.50;1.00
27747;DHT22;15138;51.012;4.692;2024-03-25T00:24:01;4.50;1.00
27747;DHT22;15138;51.012;4.692;2024-03-25T00:26:29;4.50;26.50
27747;DHT22;15138;51.012;4.692;2024-03-25T00:28:55;4.50;99.90
27747;DHT22;15138;51.012;4.692;2024-03-25T00:31:23;4.50;99.90
27747;DHT22;15138;51.012;4.692;2024-03-25T00:33:49;4.60;99.90
27747;DHT22;15138;51.012;4.692;2024-03-25T00:36:16;4.60;1.00
27747;DHT22;15138;51.012;4.692;2024-03-25T00:38:43;4.50;1.00
27747;DHT22;15138;51.012;4.692;2024-03-25T00:41:10;4.50;1.00
27747;DHT22;15138;51.012;4.692;2024-03-25T00:43:38;4.50;1.00
27747;DHT22;15138;51.012;4.692;2024-03-25T00:46:05;4.50;1.00
27747;DHT22;15138;51.012;4.692;2024-03-25T00:48:31;4.50;1.00
27747;DHT22;15138;51.012;4.692;2024-03-25T00:50:59;4.50;1.00
27747;DHT22;15138;51.012;4.692;2024-03-25T00:53:25;4.60;1.00
27747;DHT22;15138;51.012;4.692;2024-03-25T00:55:52;4.40;1.00
27747;DHT22;15138;51.012;4.692;2024-03-25T00:58:18;4.40;1.00
27747;DHT22;15138;51.012;4.692;2024-03-25T01:00:47;4.30;1.00
27747;DHT22;15138;51.012;4.692;2024-03-25T01:03:13;4.40;1.00
27747;DHT22;15138;51.012;4.692;2024-03-25T01:05:40;4.30;1.00
27747;DHT22;15138;51.012;4.692;2024-03-25T01:08:06;4.30;1.00
27747;DHT22;15138;51.012;4.692;2024-03-25T01:10:36;4.30;1.00
27747;DHT22;15138;51.012;4.692;2024-03-25T01:13:03;4.30;1.00
27747;DHT22;15138;51.012;4.692;2024-03-25T01:15:30;4.30;1.00
27747;DHT22;15138;51.012;4.692;2024-03-25T01:17:57;4.30;99.90
27747;DHT22;15138;51.012;4.692;2024-03-25T01:20:25;4.20;99.90
27747;DHT22;15138;51.012;4.692;2024-03-25T01:22:51;4.20;99.90
27747;DHT22;15138;51.012;4.692;2024-03-25T01:25:18;4.30;99.90
27747;DHT22;15138;51.012;4.692;2024-03-25T01:27:44;4.20;99.90
27747;DHT22;15138;51.012;4.692;2024-03-25T01:30:13;4.20;99.90
27747;DHT22;15138;51.012;4.692;2024-03-25T01:32:40;4.10;99.90
27747;DHT22;15138;51.012;4.692;2024-03-25T01:35:10;4.20;95.90
27747;DHT22;15138;51.012;4.692;2024-03-25T01:37:37;4.20;1.00
27747;DHT22;15138;51.012;4.692;2024-03-25T01:40:05;4.10;1.00
27747;DHT22;15138;51.012;4.692;2024-03-25T01:42:32;4.10;1.00
27747;DHT22;15138;51.012;4.692;2024-03-25T01:44:59;4.20;1.00
27747;DHT22;15138;51.012;4.692;2024-03-25T01:47:25;4.00;1.00
27747;DHT22;15138;51.012;4.692;2024-03-25T01:49:53;4.00;1.00
27747;DHT22;15138;51.012;4.692;2024-03-25T01:52:23;4.00;1.00
27747;DHT22;15138;51.012;4.692;2024-03-25T01:54:52;3.90;1.00
27747;DHT22;15138;51.012;4.692;2024-03-25T01:57:20;3.90;1.00
27747;DHT22;15138;51.012;4.692;2024-03-25T01:59:47;3.90;1.00
27747;DHT22;15138;51.012;4.692;2024-03-25T02:02:14;3.90;1.00
27747;DHT22;15138;51.012;4.692;2024-03-25T02:04:42;3.90;1.00
27747;DHT22;15138;51.012;4.692;2024-03-25T02:07:10;3.90;1.00
27747;DHT22;15138;51.012;4.692;2024-03-25T02:09:39;4.00;1.00
27747;DHT22;15138;51.012;4.692;2024-03-25T02:12:07;3.80;99.90
27747;DHT22;15138;51.012;4.692;2024-03-25T02:14:35;3.80;99.90
27747;DHT22;15138;51.012;4.692;2024-03-25T02:17:01;3.70;99.90
27747;DHT22;15138;51.012;4.692;2024-03-25T02:19:30;3.60;99.90
27747;DHT22;15138;51.012;4.692;2024-03-25T02:21:57;3.70;99.90
27747;DHT22;15138;51.012;4.692;2024-03-25T02:24:26;3.60;99.90
27747;DHT22;15138;51.012;4.692;2024-03-25T02:26:55;3.70;99.90
27747;DHT22;15138;51.012;4.692;2024-03-25T02:29:22;3.60;99.90
27747;DHT22;15138;51.012;4.692;2024-03-25T02:31:48;3.60;99.90
27747;DHT22;15138;51.012;4.692;2024-03-25T02:34:18;3.60;99.90
27747;DHT22;15138;51.012;4.692;2024-03-25T02:36:44;3.60;99.90
27747;DHT22;15138;51.012;4.692;2024-03-25T02:39:12;3.50;99.90
27747;DHT22;15138;51.012;4.692;2024-03-25T02:41:38;3.50;99.90
27747;DHT22;15138;51.012;4.692;2024-03-25T02:44:07;3.50;99.90
27747;DHT22;15138;51.012;4.692;2024-03-25T02:46:34;3.50;99.90
27747;DHT22;15138;51.012;4.692;2024-03-25T02:49:01;3.40;99.90
27747;DHT22;15138;51.012;4.692;2024-03-25T02:51:27;3.40;99.90
27747;DHT22;15138;51.012;4.692;2024-03-25T02:53:54;3.40;99.90
27747;DHT22;15138;51.012;4.692;2024-03-25T02:56:20;3.30;99.90
27747;DHT22;15138;51.012;4.692;2024-03-25T02:58:47;3.30;99.90
27747;DHT22;15138;51.012;4.692;2024-03-25T03:01:16;3.20;99.90
27747;DHT22;15138;51.012;4.692;2024-03-25T03:03:43;3.30;99.90
27747;DHT22;15138;51.012;4.692;2024-03-25T03:06:09;3.20;99.90
27747;DHT22;15138;51.012;4.692;2024-03-25T03:08:36;3.30;99.90
27747;DHT22;15138;51.012;4.692;2024-03-25T03:11:03;3.20;99.90
27747;DHT22;15138;51.012;4.692;2024-03-25T03:13:30;3.20;99.90
27747;DHT22;15138;51.012;4.692;2024-03-25T03:15:56;3.30;99.90
27747;DHT22;15138;51.012;4.692;2024-03-25T03:18:24;3.30;99.90
27747;DHT22;15138;51.012;4.692;2024-03-25T03:20:51;3.20;99.90
27747;DHT22;15138;51.012;4.692;2024-03-25T03:23:21;3.30;99.90
27747;DHT22;15138;51.012;4.692;2024-03-25T03:25:47;3.20;99.90
27747;DHT22;15138;51.012;4.692;2024-03-25T03:28:15;3.30;99.90
27747;DHT22;15138;51.012;4.692;2024-03-25T03:30:41;3.10;99.90
27747;DHT22;15138;51.012;4.692;2024-03-25T03:33:08;3.20;62.80
27747;DHT22;15138;51.012;4.692;2024-03-25T03:35:35;3.10;19.40
27747;DHT22;15138;51.012;4.692;2024-03-25T03:38:03;3.10;4.30
27747;DHT22;15138;51.012;4.692;2024-03-25T03:40:31;3.10;1.00
27747;DHT22;15138;51.012;4.692;2024-03-25T03:42:59;3.10;1.00
27747;DHT22;15138;51.012;4.692;2024-03-25T03:45:26;3.00;1.00
27747;DHT22;15138;51.012;4.692;2024-03-25T03:47:52;3.00;1.00
27747;DHT22;15138;51.012;4.692;2024-03-25T03:50:19;3.10;1.00
27747;DHT22;15138;51.012;4.692;2024-03-25T03:52:46;3.00;1.00
27747;DHT22;15138;51.012;4.692;2024-03-25T03:55:14;3.00;1.00
27747;DHT22;15138;51.012;4.692;2024-03-25T03:57:40;2.90;1.00
27747;DHT22;15138;51.012;4.692;2024-03-25T04:00:09;2.90;1.00
27747;DHT22;15138;51.012;4.692;2024-03-25T04:02:37;2.90;1.00
27747;DHT22;15138;51.012;4.692;2024-03-25T04:05:05;3.00;1.00
27747;DHT22;15138;51.012;4.692;2024-03-25T04:07:32;2.90;1.00
27747;DHT22;15138;51.012;4.692;2024-03-25T04:10:01;2.90;1.00
27747;DHT22;15138;51.012;4.692;2024-03-25T04:12:27;2.90;1.00
27747;DHT22;15138;51.012;4.692;2024-03-25T04:14:54;2.90;1.00
27747;DHT22;15138;51.012;4.692;2024-03-25T04:17:21;2.90;1.00
27747;DHT22;15138;51.012;4.692;2024-03-25T04:19:48;2.90;1.00
27747;DHT22;15138;51.012;4.692;2024-03-25T04:22:14;2.90;1.00
27747;DHT22;15138;51.012;4.692;2024-03-25T04:24:42;2.90;1.00
27747;DHT22;15138;51.012;4.692;2024-03-25T04:27:10;2.80;1.00
27747;DHT22;15138;51.012;4.692;2024-03-25T04:29:37;2.70;1.00
27747;DHT22;15138;51.012;4.692;2024-03-25T04:32:04;2.70;1.00
27747;DHT22;15138;51.012;4.692;2024-03-25T04:34:31;2.70;5.70
27747;DHT22;15138;51.012;4.692;2024-03-25T04:36:57;2.80;25.40
27747;DHT22;15138;51.012;4.692;2024-03-25T04:39:24;2.70;58.80
27747;DHT22;15138;51.012;4.692;2024-03-25T04:41:50;2.70;66.90
27747;DHT22;15138;51.012;4.692;2024-03-25T04:44:18;2.80;99.90
27747;DHT22;15138;51.012;4.692;2024-03-25T04:46:44;2.70;99.90
27747;DHT22;15138;51.012;4.692;2024-03-25T04:49:11;2.60;99.90
27747;DHT22;15138;51.012;4.692;2024-03-25T04:51:37;2.70;99.90
27747;DHT22;15138;51.012;4.692;2024-03-25T04:54:03;2.70;99.90
27747;DHT22;15138;51.012;4.692;2024-03-25T04:56:29;2.60;99.90
27747;DHT22;15138;51.012;4.692;2024-03-25T04:58:56;2.70;99.90
27747;DHT22;15138;51.012;4.692;2024-03-25T05:01:24;2.60;99.90
27747;DHT22;15138;51.012;4.692;2024-03-25T05:03:50;2.60;99.90
27747;DHT22;15138;51.012;4.692;2024-03-25T05:06:17;2.50;99.90
27747;DHT22;15138;51.012;4.692;2024-03-25T05:08:43;2.70;99.90
27747;DHT22;15138;51.012;4.692;2024-03-25T05:11:09;2.60;99.90
27747;DHT22;15138;51.012;4.692;2024-03-25T05:13:35;2.60;99.90
27747;DHT22;15138;51.012;4.692;2024-03-25T05:16:01;2.60;99.90
27747;DHT22;15138;51.012;4.692;2024-03-25T05:18:29;2.60;98.40
27747;DHT22;15138;51.012;4.692;2024-03-25T05:20:55;2.60;76.10
27747;DHT22;15138;51.012;4.692;2024-03-25T05:23:21;2.60;64.10
27747;DHT22;15138;51.012;4.692;2024-03-25T05:25:47;2.60;43.10
27747;DHT22;15138;51.012;4.692;2024-03-25T05:28:14;2.60;20.00
27747;DHT22;15138;51.012;4.692;2024-03-25T05:30:40;2.60;1.00
27747;DHT22;15138;51.012;4.692;2024-03-25T05:33:06;2.60;1.00
27747;DHT22;15138;51.012;4.692;2024-03-25T05:35:34;2.50;1.00
27747;DHT22;15138;51.012;4.692;2024-03-25T05:38:00;2.60;2.10
27747;DHT22;15138;51.012;4.692;2024-03-25T05:40:26;2.50;1.00
27747;DHT22;15138;51.012;4.692;2024-03-25T05:42:53;2.70;1.00
27747;DHT22;15138;51.012;4.692;2024-03-25T05:45:19;2.50;1.00
27747;DHT22;15138;51.012;4.692;2024-03-25T05:47:45;2.40;1.00
27747;DHT22;15138;51.012;4.692;2024-03-25T05:50:11;2.60;1.00
27747;DHT22;15138;51.012;4.692;2024-03-25T05:52:39;2.60;1.00
27747;DHT22;15138;51.012;4.692;2024-03-25T05:55:05;2.60;1.00
27747;DHT22;15138;51.012;4.692;2024-03-25T05:57:32;2.60;1.00
27747;DHT22;15138;51.012;4.692;2024-03-25T05:59:58;2.70;1.00
27747;DHT22;15138;51.012;4.692;2024-03-25T06:02:24;2.60;1.00
27747;DHT22;15138;51.012;4.692;2024-03-25T06:04:50;2.70;1.00
27747;DHT22;15138;51.012;4.692;2024-03-25T06:07:17;2.70;1.00
27747;DHT22;15138;51.012;4.692;2024-03-25T06:09:44;2.80;1.00
27747;DHT22;15138;51.012;4.692;2024-03-25T06:12:10;2.80;1.00
27747;DHT22;15138;51.012;4.692;2024-03-25T06:14:36;3.00;1.00
27747;DHT22;15138;51.012;4.692;2024-03-25T06:17:03;3.10;1.00
27747;DHT22;15138;51.012;4.692;2024-03-25T06:19:29;3.10;81.60
27747;DHT22;15138;51.012;4.692;2024-03-25T06:21:55;3.20;99.90
27747;DHT22;15138;51.012;4.692;2024-03-25T06:24:22;3.40;99.90
27747;DHT22;15138;51.012;4.692;2024-03-25T06:26:49;3.40;1.00
27747;DHT22;15138;51.012;4.692;2024-03-25T06:29:15;3.60;99.90
27747;DHT22;15138;51.012;4.692;2024-03-25T06:31:42;3.70;1.00
27747;DHT22;15138;51.012;4.692;2024-03-25T06:34:26;3.70;99.90
27747;DHT22;15138;51.012;4.692;2024-03-25T06:36:52;3.80;1.00
27747;DHT22;15138;51.012;4.692;2024-03-25T06:39:18;4.00;99.90
27747;DHT22;15138;51.012;4.692;2024-03-25T06:41:45;4.10;99.90
27747;DHT22;15138;51.012;4.692;2024-03-25T06:44:12;4.30;99.90
27747;DHT22;15138;51.012;4.692;2024-03-25T06:46:38;4.40;1.00
27747;DHT22;15138;51.012;4.692;2024-03-25T06:49:05;4.60;99.90
27747;DHT22;15138;51.012;4.692;2024-03-25T06:51:31;4.70;1.00
27747;DHT22;15138;51.012;4.692;2024-03-25T06:53:57;4.60;99.90
27747;DHT22;15138;51.012;4.692;2024-03-25T06:56:25;4.80;99.90
27747;DHT22;15138;51.012;4.692;2024-03-25T06:58:51;5.00;99.90
27747;DHT22;15138;51.012;4.692;2024-03-25T07:01:19;5.00;99.90
27747;DHT22;15138;51.012;4.692;2024-03-25T07:03:45;5.00;99.90
27747;DHT22;15138;51.012;4.692;2024-03-25T07:06:11;5.20;99.90
27747;DHT22;15138;51.012;4.692;2024-03-25T07:08:37;5.20;1.00
27747;DHT22;15138;51.012;4.692;2024-03-25T07:11:03;5.50;1.00
27747;DHT22;15138;51.012;4.692;2024-03-25T07:13:30;5.40;1.00
27747;DHT22;15138;51.012;4.692;2024-03-25T07:15:56;5.50;1.00
27747;DHT22;15138;51.012;4.692;2024-03-25T07:18:23;5.70;1.00
27747;DHT22;15138;51.012;4.692;2024-03-25T07:20:50;5.70;68.70
27747;DHT22;15138;51.012;4.692;2024-03-25T07:23:16;6.10;99.90
27747;DHT22;15138;51.012;4.692;2024-03-25T07:25:42;6.40;99.90
27747;DHT22;15138;51.012;4.692;2024-03-25T07:28:08;6.20;99.90
27747;DHT22;15138;51.012;4.692;2024-03-25T07:30:34;6.50;99.90
27747;DHT22;15138;51.012;4.692;2024-03-25T07:35:30;6.60;1.00
27747;DHT22;15138;51.012;4.692;2024-03-25T07:37:57;7.00;99.90
27747;DHT22;15138;51.012;4.692;2024-03-25T07:40:23;7.30;99.90
27747;DHT22;15138;51.012;4.692;2024-03-25T07:42:49;7.50;99.90
27747;DHT22;15138;51.012;4.692;2024-03-25T07:47:43;7.70;1.00
27747;DHT22;15138;51.012;4.692;2024-03-25T07:52:37;8.00;1.00
27747;DHT22;15138;51.012;4.692;2024-03-25T07:55:04;8.10;1.00
27747;DHT22;15138;51.012;4.692;2024-03-25T07:57:30;8.10;99.90
27747;DHT22;15138;51.012;4.692;2024-03-25T09:10:51;14.40;1.00
27747;DHT22;15138;51.012;4.692;2024-03-25T09:13:30;14.40;99.90
27747;DHT22;15138;51.012;4.692;2024-03-25T09:15:56;14.20;1.00
27747;DHT22;15138;51.012;4.692;2024-03-25T09:18:24;14.60;1.00
27747;DHT22;15138;51.012;4.692;2024-03-25T09:20:50;14.90;1.00
27747;DHT22;15138;51.012;4.692;2024-03-25T09:28:18;15.10;99.90
27747;DHT22;15138;51.012;4.692;2024-03-25T09:30:44;14.90;1.00
27747;DHT22;15138;51.012;4.692;2024-03-25T09:40:31;15.00;99.90
27747;DHT22;15138;51.012;4.692;2024-03-25T09:42:58;14.80;99.90
27747;DHT22;15138;51.012;4.692;2024-03-25T09:45:29;15.20;99.90
27747;DHT22;15138;51.012;4.692;2024-03-25T09:47:56;15.50;99.90
27747;DHT22;15138;51.012;4.692;2024-03-25T09:50:22;15.10;1.00
27747;DHT22;15138;51.012;4.692;2024-03-25T09:52:50;14.90;1.00
27747;DHT22;15138;51.012;4.692;2024-03-25T10:05:05;15.30;1.00
27747;DHT22;15138;51.012;4.692;2024-03-25T10:29:45;16.40;99.90
27747;DHT22;15138;51.012;4.692;2024-03-25T10:32:13;16.70;99.90
27747;DHT22;15138;51.012;4.692;2024-03-25T10:34:39;17.00;99.90
27747;DHT22;15138;51.012;4.692;2024-03-25T10:37:08;17.20;99.90
27747;DHT22;15138;51.012;4.692;2024-03-25T10:39:38;18.10;99.90
27747;DHT22;15138;51.012;4.692;2024-03-25T10:42:05;18.80;99.90
27747;DHT22;15138;51.012;4.692;2024-03-25T10:47:01;19.30;99.90
27747;DHT22;15138;51.012;4.692;2024-03-25T10:49:33;19.20;99.90
27747;DHT22;15138;51.012;4.692;2024-03-25T10:52:01;18.90;99.90
27747;DHT22;15138;51.012;4.692;2024-03-25T10:54:30;18.70;99.90
27747;DHT22;15138;51.012;4.692;2024-03-25T10:56:58;19.80;99.90
27747;DHT22;15138;51.012;4.692;2024-03-25T10:59:26;19.10;99.90
27747;DHT22;15138;51.012;4.692;2024-03-25T11:01:54;20.10;99.90
27747;DHT22;15138;51.012;4.692;2024-03-25T11:04:21;19.40;99.90
27747;DHT22;15138;51.012;4.692;2024-03-25T11:09:23;18.50;99.90
27747;DHT22;15138;51.012;4.692;2024-03-25T11:11:51;18.90;99.90
27747;DHT22;15138;51.012;4.692;2024-03-25T11:14:17;20.20;99.90
27747;DHT22;15138;51.012;4.692;2024-03-25T11:16:43;18.70;99.90
27747;DHT22;15138;51.012;4.692;2024-03-25T11:19:12;19.30;99.90
27747;DHT22;15138;51.012;4.692;2024-03-25T11:21:38;20.40;99.90
27747;DHT22;15138;51.012;4.692;2024-03-25T11:24:08;21.30;99.90
27747;DHT22;15138;51.012;4.692;2024-03-25T11:29:01;18.80;99.90
27747;DHT22;15138;51.012;4.692;2024-03-25T11:31:27;19.30;99.90
27747;DHT22;15138;51.012;4.692;2024-03-25T11:33:54;19.10;99.90
27747;DHT22;15138;51.012;4.692;2024-03-25T11:36:22;18.20;99.90
27747;DHT22;15138;51.012;4.692;2024-03-25T11:38:57;18.50;99.90
27747;DHT22;15138;51.012;4.692;2024-03-25T11:41:24;19.10;99.90
27747;DHT22;15138;51.012;4.692;2024-03-25T11:43:50;18.00;99.90
27747;DHT22;15138;51.012;4.692;2024-03-25T11:46:19;17.20;99.90
27747;DHT22;15138;51.012;4.692;2024-03-25T11:51:16;17.70;1.00
27747;DHT22;15138;51.012;4.692;2024-03-25T11:53:45;17.70;99.90
27747;DHT22;15138;51.012;4.692;2024-03-25T12:06:00;17.40;1.00
27747;DHT22;15138;51.012;4.692;2024-03-25T12:08:26;17.00;1.00
27747;DHT22;15138;51.012;4.692;2024-03-25T12:10:54;16.80;1.00
27747;DHT22;15138;51.012;4.692;2024-03-25T12:25:56;18.20;43.10
27747;DHT22;15138;51.012;4.692;2024-03-25T12:30:51;17.60;1.00
27747;DHT22;15138;51.012;4.692;2024-03-25T12:33:18;17.40;1.00
27747;DHT22;15138;51.012;4.692;2024-03-25T12:53:04;20.30;99.90
27747;DHT22;15138;51.012;4.692;2024-03-25T12:57:57;19.60;99.90
27747;DHT22;15138;51.012;4.692;2024-03-25T13:00:25;19.60;99.90
27747;DHT22;15138;51.012;4.692;2024-03-25T13:07:48;19.20;1.00
27747;DHT22;15138;51.012;4.692;2024-03-25T13:12:41;19.40;99.90
27747;DHT22;15138;51.012;4.692;2024-03-25T13:15:08;19.20;92.80
27747;DHT22;15138;51.012;4.692;2024-03-25T13:22:28;18.00;99.90
27747;DHT22;15138;51.012;4.692;2024-03-25T13:39:35;18.70;99.90
27747;DHT22;15138;51.012;4.692;2024-03-25T13:44:28;19.10;99.90
27747;DHT22;15138;51.012;4.692;2024-03-25T13:46:54;19.00;99.90
27747;DHT22;15138;51.012;4.692;2024-03-25T13:49:21;18.60;99.90
27747;DHT22;15138;51.012;4.692;2024-03-25T13:51:48;18.40;1.00
27747;DHT22;15138;51.012;4.692;2024-03-25T13:54:16;18.90;99.90
27747;DHT22;15138;51.012;4.692;2024-03-25T13:56:42;19.00;99.90
27747;DHT22;15138;51.012;4.692;2024-03-25T13:59:09;19.00;99.90
27747;DHT22;15138;51.012;4.692;2024-03-25T14:01:35;18.90;99.90
27747;DHT22;15138;51.012;4.692;2024-03-25T14:04:01;19.60;99.90
27747;DHT22;15138;51.012;4.692;2024-03-25T14:06:27;20.10;99.90
27747;DHT22;15138;51.012;4.692;2024-03-25T14:08:55;20.60;99.90
27747;DHT22;15138;51.012;4.692;2024-03-25T14:11:21;20.60;99.90
27747;DHT22;15138;51.012;4.692;2024-03-25T14:13:48;18.60;99.90
27747;DHT22;15138;51.012;4.692;2024-03-25T14:16:14;18.10;99.90
27747;DHT22;15138;51.012;4.692;2024-03-25T14:18:40;18.60;99.90
27747;DHT22;15138;51.012;4.692;2024-03-25T14:21:07;19.80;99.90
27747;DHT22;15138;51.012;4.692;2024-03-25T14:23:33;19.70;99.90
27747;DHT22;15138;51.012;4.692;2024-03-25T14:26:01;19.30;99.90
27747;DHT22;15138;51.012;4.692;2024-03-25T14:28:28;19.70;99.90
27747;DHT22;15138;51.012;4.692;2024-03-25T14:30:54;18.90;99.90
27747;DHT22;15138;51.012;4.692;2024-03-25T14:33:20;17.80;99.90
27747;DHT22;15138;51.012;4.692;2024-03-25T14:35:46;17.80;99.90
27747;DHT22;15138;51.012;4.692;2024-03-25T14:38:13;17.50;99.90
27747;DHT22;15138;51.012;4.692;2024-03-25T14:40:39;17.00;99.90
27747;DHT22;15138;51.012;4.692;2024-03-25T14:43:07;17.00;99.90
27747;DHT22;15138;51.012;4.692;2024-03-25T14:45:33;17.20;99.90
27747;DHT22;15138;51.012;4.692;2024-03-25T14:48:00;17.30;99.90
27747;DHT22;15138;51.012;4.692;2024-03-25T14:50:26;17.10;99.90
27747;DHT22;15138;51.012;4.692;2024-03-25T14:52:52;17.00;99.90
27747;DHT22;15138;51.012;4.692;2024-03-25T14:55:19;16.70;99.90
27747;DHT22;15138;51.012;4.692;2024-03-25T14:57:45;16.90;99.90
27747;DHT22;15138;51.012;4.692;2024-03-25T15:00:14;17.00;99.90
27747;DHT22;15138;51.012;4.692;2024-03-25T15:02:40;15.90;99.90
27747;DHT22;15138;51.012;4.692;2024-03-25T15:05:07;15.90;99.90
27747;DHT22;15138;51.012;4.692;2024-03-25T15:07:33;16.40;96.70
27747;DHT22;15138;51.012;4.692;2024-03-25T15:10:00;16.60;99.90
27747;DHT22;15138;51.012;4.692;2024-03-25T15:14:53;17.60;99.90
27747;DHT22;15138;51.012;4.692;2024-03-25T15:17:21;17.50;99.90
27747;DHT22;15138;51.012;4.692;2024-03-25T15:24:40;16.10;99.90
27747;DHT22;15138;51.012;4.692;2024-03-25T15:29:33;16.60;99.90
27747;DHT22;15138;51.012;4.692;2024-03-25T15:31:59;16.70;44.80
27747;DHT22;15138;51.012;4.692;2024-03-25T15:34:27;16.60;1.00
27747;DHT22;15138;51.012;4.692;2024-03-25T15:36:53;15.70;99.90
27747;DHT22;15138;51.012;4.692;2024-03-25T15:39:20;15.60;1.00
27747;DHT22;15138;51.012;4.692;2024-03-25T15:41:46;15.70;1.00
27747;DHT22;15138;51.012;4.692;2024-03-25T15:44:14;15.20;99.90
27747;DHT22;15138;51.012;4.692;2024-03-25T15:46:41;14.90;99.90
27747;DHT22;15138;51.012;4.692;2024-03-25T15:56:28;14.70;99.90
27747;DHT22;15138;51.012;4.692;2024-03-25T15:58:55;14.50;1.00
27747;DHT22;15138;51.012;4.692;2024-03-25T16:01:21;14.50;99.90
27747;DHT22;15138;51.012;4.692;2024-03-25T16:03:48;14.70;99.90
27747;DHT22;15138;51.012;4.692;2024-03-25T16:06:14;14.80;99.90
27747;DHT22;15138;51.012;4.692;2024-03-25T16:11:14;14.40;1.00
27747;DHT22;15138;51.012;4.692;2024-03-25T16:13:41;14.50;1.00
27747;DHT22;15138;51.012;4.692;2024-03-25T16:16:07;14.50;99.90
27747;DHT22;15138;51.012;4.692;2024-03-25T16:18:34;14.30;99.90
27747;DHT22;15138;51.012;4.692;2024-03-25T16:21:00;14.20;99.90
27747;DHT22;15138;51.012;4.692;2024-03-25T16:23:26;14.20;99.90
27747;DHT22;15138;51.012;4.692;2024-03-25T16:25:54;14.20;1.00
27747;DHT22;15138;51.012;4.692;2024-03-25T16:28:21;14.30;1.00
27747;DHT22;15138;51.012;4.692;2024-03-25T16:30:47;14.20;1.00
27747;DHT22;15138;51.012;4.692;2024-03-25T16:33:14;14.20;1.00
27747;DHT22;15138;51.012;4.692;2024-03-25T16:38:06;13.80;99.90
27747;DHT22;15138;51.012;4.692;2024-03-25T16:40:33;13.90;99.90
27747;DHT22;15138;51.012;4.692;2024-03-25T16:43:01;14.00;1.00
27747;DHT22;15138;51.012;4.692;2024-03-25T16:45:27;13.80;1.00
27747;DHT22;15138;51.012;4.692;2024-03-25T16:47:53;13.60;99.90
27747;DHT22;15138;51.012;4.692;2024-03-25T16:50:19;13.50;99.90
27747;DHT22;15138;51.012;4.692;2024-03-25T16:52:46;13.20;99.90
27747;DHT22;15138;51.012;4.692;2024-03-25T16:55:12;13.20;85.60
27747;DHT22;15138;51.012;4.692;2024-03-25T16:57:38;13.60;99.90
27747;DHT22;15138;51.012;4.692;2024-03-25T17:00:08;13.30;1.00
27747;DHT22;15138;51.012;4.692;2024-03-25T17:02:34;13.40;1.00
27747;DHT22;15138;51.012;4.692;2024-03-25T17:05:00;13.50;1.00
27747;DHT22;15138;51.012;4.692;2024-03-25T17:07:27;13.50;99.90
27747;DHT22;15138;51.012;4.692;2024-03-25T17:09:53;13.40;99.90
27747;DHT22;15138;51.012;4.692;2024-03-25T17:12:20;13.30;99.90
27747;DHT22;15138;51.012;4.692;2024-03-25T17:14:46;13.20;99.90
27747;DHT22;15138;51.012;4.692;2024-03-25T17:17:14;13.20;1.00
27747;DHT22;15138;51.012;4.692;2024-03-25T17:19:40;13.20;99.90
27747;DHT22;15138;51.012;4.692;2024-03-25T17:22:06;13.30;99.90
27747;DHT22;15138;51.012;4.692;2024-03-25T17:24:33;13.20;99.90
27747;DHT22;15138;51.012;4.692;2024-03-25T17:26:59;13.20;99.90
27747;DHT22;15138;51.012;4.692;2024-03-25T17:29:25;13.00;99.90
27747;DHT22;15138;51.012;4.692;2024-03-25T17:31:52;13.00;1.00
27747;DHT22;15138;51.012;4.692;2024-03-25T17:34:19;12.90;1.00
27747;DHT22;15138;51.012;4.692;2024-03-25T17:39:12;12.80;1.00
27747;DHT22;15138;51.012;4.692;2024-03-25T17:41:38;13.00;1.00
27747;DHT22;15138;51.012;4.692;2024-03-25T17:44:05;12.90;1.00
27747;DHT22;15138;51.012;4.692;2024-03-25T17:46:31;12.90;99.90
27747;DHT22;15138;51.012;4.692;2024-03-25T17:48:57;12.70;99.90
27747;DHT22;15138;51.012;4.692;2024-03-25T17:51:25;12.60;99.90
27747;DHT22;15138;51.012;4.692;2024-03-25T17:53:52;12.50;99.90
27747;DHT22;15138;51.012;4.692;2024-03-25T17:56:18;12.50;99.90
27747;DHT22;15138;51.012;4.692;2024-03-25T17:58:45;12.50;99.90
27747;DHT22;15138;51.012;4.692;2024-03-25T18:01:11;12.50;99.90
27747;DHT22;15138;51.012;4.692;2024-03-25T18:03:37;12.60;99.90
27747;DHT22;15138;51.012;4.692;2024-03-25T18:06:04;12.50;99.90
27747;DHT22;15138;51.012;4.692;2024-03-25T18:08:31;12.40;99.90
27747;DHT22;15138;51.012;4.692;2024-03-25T18:10:58;12.40;99.90
27747;DHT22;15138;51.012;4.692;2024-03-25T18:13:24;12.40;99.90
27747;DHT22;15138;51.012;4.692;2024-03-25T18:20:45;12.30;99.90
27747;DHT22;15138;51.012;4.692;2024-03-25T18:23:13;12.20;99.90
27747;DHT22;15138;51.012;4.692;2024-03-25T18:28:08;12.20;99.90
27747;DHT22;15138;51.012;4.692;2024-03-25T18:33:02;12.10;1.00
27747;DHT22;15138;51.012;4.692;2024-03-25T18:35:34;11.90;99.90
27747;DHT22;15138;51.012;4.692;2024-03-25T18:38:01;11.90;99.90
27747;DHT22;15138;51.012;4.692;2024-03-25T18:40:27;11.80;99.90
27747;DHT22;15138;51.012;4.692;2024-03-25T18:42:55;11.80;99.90
27747;DHT22;15138;51.012;4.692;2024-03-25T18:45:21;11.70;99.90
27747;DHT22;15138;51.012;4.692;2024-03-25T18:47:47;11.60;99.90
27747;DHT22;15138;51.012;4.692;2024-03-25T18:50:14;11.70;1.00
27747;DHT22;15138;51.012;4.692;2024-03-25T18:52:41;11.60;1.00
27747;DHT22;15138;51.012;4.692;2024-03-25T18:55:08;11.60;91.10
27747;DHT22;15138;51.012;4.692;2024-03-25T18:57:34;11.50;99.90
27747;DHT22;15138;51.012;4.692;2024-03-25T19:00:02;11.40;1.00
27747;DHT22;15138;51.012;4.692;2024-03-25T19:02:29;11.20;99.90
27747;DHT22;15138;51.012;4.692;2024-03-25T19:04:55;11.20;99.90
27747;DHT22;15138;51.012;4.692;2024-03-25T19:07:21;11.20;99.90
27747;DHT22;15138;51.012;4.692;2024-03-25T19:09:48;11.10;99.90
27747;DHT22;15138;51.012;4.692;2024-03-25T19:12:15;11.10;99.90
27747;DHT22;15138;51.012;4.692;2024-03-25T19:14:41;10.90;99.90
27747;DHT22;15138;51.012;4.692;2024-03-25T19:17:09;11.00;1.00
27747;DHT22;15138;51.012;4.692;2024-03-25T19:19:35;11.00;1.00
27747;DHT22;15138;51.012;4.692;2024-03-25T19:22:02;11.00;1.00
27747;DHT22;15138;51.012;4.692;2024-03-25T19:24:28;10.80;99.90
27747;DHT22;15138;51.012;4.692;2024-03-25T19:36:42;10.60;99.90
27747;DHT22;15138;51.012;4.692;2024-03-25T19:44:01;10.50;99.90
27747;DHT22;15138;51.012;4.692;2024-03-25T19:53:49;10.30;99.90
27747;DHT22;15138;51.012;4.692;2024-03-25T19:56:15;10.20;1.00
27747;DHT22;15138;51.012;4.692;2024-03-25T19:58:42;10.10;1.00
27747;DHT22;15138;51.012;4.692;2024-03-25T20:15:49;10.00;99.90
27747;DHT22;15138;51.012;4.692;2024-03-25T20:18:16;9.90;45.10
27747;DHT22;15138;51.012;4.692;2024-03-25T20:20:42;9.90;1.00